Time;durP1;ratioP1;P1;durP2;ratioP2;P2;SDS_P1;SDS_P2;PMS_P1;PMS_P2;Temp;Humidity;BMP_temperature;BMP_pressure;BME280_temperature;BME280_humidity;BME280_pressure;Samples;Min_cycle;Max_cycle;Signal;HPM_P1;HPM_P2
2022/10/29 00:00:43;;;;;;;23.58;5.47;;;;;;;20.94;56.25;102191.91;4950053;28;20390;-77
2022/10/29 00:03:08;;;;;;;15.52;5.25;;;;;;;20.93;56.16;102184.78;4944756;28;20097;-77
2022/10/29 00:05:34;;;;;;;17.30;3.83;;;;;;;20.88;56.55;102179.28;4955278;28;20400;-77
2022/10/29 00:08:00;;;;;;;17.85;3.97;;;;;;;20.79;56.20;102183.59;4956056;28;20038;-78
2022/10/29 00:10:25;;;;;;;21.77;6.72;;;;;;;20.91;56.10;102188.88;4955733;28;20042;-77
2022/10/29 00:12:51;;;;;;;12.73;4.35;;;;;;;20.84;56.55;102188.25;4955224;28;20090;-78
2022/10/29 00:15:16;;;;;;;19.92;4.47;;;;;;;20.77;56.23;102193.13;4955387;28;20082;-78
2022/10/29 00:17:42;;;;;;;17.13;4.18;;;;;;;20.77;56.07;102193.94;4954836;28;20031;-77
2022/10/29 00:20:08;;;;;;;16.73;3.92;;;;;;;20.71;55.76;102197.72;4955353;29;20031;-78
2022/10/29 00:22:33;;;;;;;20.63;4.05;;;;;;;20.65;55.49;102203.38;4954739;28;20031;-77
2022/10/29 00:24:58;;;;;;;14.02;3.30;;;;;;;20.66;56.46;102207.75;4954386;28;20052;-78
2022/10/29 00:27:24;;;;;;;17.60;3.70;;;;;;;20.63;56.11;102209.09;4951618;28;20047;-76
2022/10/29 00:29:50;;;;;;;20.92;4.80;;;;;;;20.59;56.38;102204.41;4935389;29;20032;-76
2022/10/29 00:32:16;;;;;;;14.43;3.72;;;;;;;20.56;56.47;102199.47;4935734;29;20032;-78
2022/10/29 00:34:41;;;;;;;11.38;4.05;;;;;;;20.51;55.68;102185.75;4935240;29;20135;-78
2022/10/29 00:37:07;;;;;;;19.17;5.05;;;;;;;20.43;56.57;102178.03;4935230;29;20040;-78
2022/10/29 00:39:33;;;;;;;14.10;3.53;;;;;;;20.35;56.80;102173.03;4935133;29;20048;-78
2022/10/29 00:41:59;;;;;;;15.77;4.80;;;;;;;20.38;56.70;102184.28;4935096;29;20484;-78
2022/10/29 00:44:28;;;;;;;26.00;4.75;;;;;;;20.43;56.03;102194.41;4935294;29;20078;-77
2022/10/29 00:47:14;;;;;;;16.70;3.63;;;;;;;20.25;56.14;102187.41;4935443;29;20036;-77
2022/10/29 00:49:41;;;;;;;19.80;4.07;;;;;;;20.22;56.92;102182.47;4934998;29;20064;-77
2022/10/29 00:52:08;;;;;;;21.45;4.22;;;;;;;20.23;56.45;102177.81;4934321;29;20104;-78
2022/10/29 00:54:38;;;;;;;21.40;4.13;;;;;;;20.21;55.76;102180.81;4949361;29;20039;-78
2022/10/29 00:57:10;;;;;;;15.20;3.50;;;;;;;20.23;55.95;102191.47;4949278;28;20032;-78
2022/10/29 00:59:35;;;;;;;15.85;3.47;;;;;;;20.15;56.20;102182.63;4945762;28;20064;-77
2022/10/29 01:02:02;;;;;;;26.63;4.43;;;;;;;20.17;56.49;102185.94;4953655;28;20043;-78
2022/10/29 01:04:29;;;;;;;20.83;4.07;;;;;;;20.10;55.87;102182.59;4953449;28;20054;-78
2022/10/29 01:06:55;;;;;;;20.20;3.70;;;;;;;20.02;56.36;102179.47;4953610;28;20043;-78
2022/10/29 01:09:20;;;;;;;14.00;3.97;;;;;;;20.07;55.89;102183.06;4950882;29;20042;-78
2022/10/29 01:11:52;;;;;;;28.63;4.47;;;;;;;20.07;55.87;102176.78;4953315;28;20545;-80
2022/10/29 01:14:36;;;;;;;13.40;3.42;;;;;;;19.96;56.32;102170.41;4953755;28;20503;-78
2022/10/29 01:17:48;;;;;;;18.45;4.03;;;;;;;19.94;56.16;102167.09;4953374;29;20562;-78
2022/10/29 01:20:35;;;;;;;18.88;3.67;;;;;;;19.97;56.58;102171.22;4953499;28;20058;-78
2022/10/29 01:23:51;;;;;;;22.27;5.40;;;;;;;20.01;56.88;102172.34;4953926;28;20051;-77
2022/10/29 01:26:34;;;;;;;14.25;3.65;;;;;;;19.94;56.65;102161.66;4937190;29;20047;-78
2022/10/29 01:29:16;;;;;;;21.65;4.22;;;;;;;19.87;56.01;102160.19;4937211;29;20484;-78
2022/10/29 01:31:50;;;;;;;19.80;3.53;;;;;;;19.86;56.01;102156.63;4937447;29;20088;-78
2022/10/29 01:34:38;;;;;;;28.83;5.20;;;;;;;19.92;56.71;102147.44;4937292;29;20099;-75
2022/10/29 01:37:04;;;;;;;18.58;5.10;;;;;;;19.83;56.62;102145.41;4937374;29;20036;-79
2022/10/29 01:39:52;;;;;;;26.33;5.72;;;;;;;19.89;57.72;102137.00;4937294;29;20178;-79
2022/10/29 01:42:26;;;;;;;25.80;5.70;;;;;;;20.03;57.44;102145.63;4937473;29;20049;-77
2022/10/29 01:44:57;;;;;;;28.38;5.75;;;;;;;20.04;57.42;102147.28;4937785;29;20396;-77
2022/10/29 01:47:26;;;;;;;21.00;4.50;;;;;;;20.03;56.54;102145.63;4937620;29;20086;-76
2022/10/29 01:50:01;;;;;;;26.15;5.07;;;;;;;19.99;57.04;102141.75;4936815;29;20044;-78
2022/10/29 01:52:31;;;;;;;21.75;6.97;;;;;;;19.99;57.61;102139.88;4936802;29;20433;-78
2022/10/29 01:54:57;;;;;;;16.52;4.50;;;;;;;19.98;56.76;102140.97;4940428;29;20031;-77
2022/10/29 01:57:27;;;;;;;17.92;5.85;;;;;;;19.94;57.68;102134.38;4956125;28;20106;-77
2022/10/29 02:02:50;;;;;;;22.33;5.55;;;;;;;19.89;57.45;102128.84;5083949;27;1234104;-77
2022/10/29 02:05:21;;;;;;;19.20;4.82;;;;;;;19.83;56.43;102121.66;5070056;28;20483;-78
2022/10/29 02:07:55;;;;;;;19.67;6.20;;;;;;;19.77;56.59;102113.69;5089558;28;20037;-78
2022/10/29 02:11:08;;;;;;;17.65;5.10;;;;;;;19.76;56.95;102117.50;5089641;28;20055;-77
2022/10/29 02:13:45;;;;;;;18.13;6.53;;;;;;;19.75;56.60;102111.19;5066900;28;20170;-78
2022/10/29 02:16:11;;;;;;;18.20;5.88;;;;;;;19.77;56.48;102105.50;5066580;28;20052;-77
2022/10/29 02:18:42;;;;;;;23.23;6.50;;;;;;;19.73;56.75;102105.22;5066133;28;20060;-77
2022/10/29 02:21:07;;;;;;;19.08;6.63;;;;;;;19.70;57.46;102102.13;5065972;28;20528;-77
2022/10/29 02:23:33;;;;;;;21.15;6.63;;;;;;;19.66;56.36;102112.75;5066431;28;20029;-77
2022/10/29 02:25:58;;;;;;;25.90;7.68;;;;;;;19.72;56.89;102111.72;5067158;28;20048;-78
2022/10/29 02:28:23;;;;;;;22.38;7.47;;;;;;;19.64;56.43;102108.59;5066289;28;20563;-78
2022/10/29 02:30:49;;;;;;;33.22;7.70;;;;;;;19.63;57.56;102118.72;5066293;28;20037;-78
2022/10/29 02:33:15;;;;;;;24.38;7.60;;;;;;;19.58;57.11;102121.38;5066377;28;20033;-78
2022/10/29 02:35:40;;;;;;;25.42;7.85;;;;;;;19.70;57.71;102110.31;5066561;28;20048;-78
2022/10/29 02:38:05;;;;;;;25.88;8.43;;;;;;;19.73;57.93;102109.84;5066568;28;20098;-78
2022/10/29 02:40:31;;;;;;;34.70;8.70;;;;;;;19.66;58.67;102101.00;5049038;28;20041;-77
2022/10/29 02:42:56;;;;;;;35.60;9.60;;;;;;;19.83;57.96;102107.22;5066491;28;20040;-76
2022/10/29 02:45:22;;;;;;;36.58;10.77;;;;;;;19.88;57.78;102110.00;5087379;28;20051;-77
2022/10/29 02:47:47;;;;;;;32.80;9.65;;;;;;;19.58;59.51;102107.72;5089228;28;20074;-77
2022/10/29 02:50:14;;;;;;;29.10;7.93;;;;;;;19.57;60.31;102105.25;5097524;28;20023;-77
2022/10/29 02:52:39;;;;;;;31.27;8.63;;;;;;;19.72;59.51;102108.16;5093290;28;20060;-77
2022/10/29 02:55:05;;;;;;;22.40;8.90;;;;;;;19.81;59.53;102106.66;5088766;28;20036;-77
2022/10/29 02:57:30;;;;;;;44.15;8.80;;;;;;;19.92;58.80;102092.88;5088450;28;20040;-77
2022/10/29 02:59:55;;;;;;;35.65;8.55;;;;;;;19.89;58.46;102096.09;5088857;28;20105;-77
2022/10/29 03:02:21;;;;;;;16.92;8.18;;;;;;;19.98;58.40;102082.81;5087455;28;20059;-78
2022/10/29 03:04:46;;;;;;;48.60;9.57;;;;;;;19.81;59.09;102082.91;5098228;28;20578;-75
2022/10/29 03:07:12;;;;;;;35.45;7.57;;;;;;;19.93;58.43;102090.97;5108689;28;20040;-78
2022/10/29 03:09:37;;;;;;;16.30;6.32;;;;;;;19.94;58.29;102081.69;5108821;28;20036;-77
2022/10/29 03:12:02;;;;;;;9.10;5.53;;;;;;;19.89;58.50;102087.09;5105367;28;20411;-77
2022/10/29 03:14:28;;;;;;;42.22;6.63;;;;;;;19.86;59.02;102090.31;5094995;28;20058;-78
2022/10/29 03:16:53;;;;;;;33.33;6.80;;;;;;;19.95;58.51;102086.09;5095140;28;20028;-77
2022/10/29 03:19:19;;;;;;;29.20;7.07;;;;;;;19.88;58.32;102086.28;5094421;28;20047;-77
2022/10/29 03:21:44;;;;;;;45.50;8.73;;;;;;;20.02;58.47;102095.69;5094742;28;20043;-77
2022/10/29 03:24:09;;;;;;;36.40;7.70;;;;;;;19.93;58.78;102102.69;5094626;28;20046;-78
2022/10/29 03:26:35;;;;;;;33.17;8.27;;;;;;;19.91;59.03;102120.41;5094510;28;20044;-78
2022/10/29 03:29:01;;;;;;;33.60;8.10;;;;;;;19.69;60.14;102116.88;5095212;28;20061;-77
2022/10/29 03:31:26;;;;;;;25.98;8.88;;;;;;;20.02;58.85;102103.06;5094645;28;20502;-77
2022/10/29 03:33:52;;;;;;;45.65;8.20;;;;;;;19.83;59.74;102096.31;5094376;28;20033;-78
2022/10/29 03:36:17;;;;;;;29.50;9.02;;;;;;;19.94;58.56;102087.16;5094726;28;20032;-78
2022/10/29 03:38:43;;;;;;;17.02;9.57;;;;;;;19.94;58.68;102081.69;5094701;28;20031;-78
2022/10/29 03:41:09;;;;;;;12.45;8.52;;;;;;;19.88;58.51;102086.28;5094774;28;20040;-78
2022/10/29 03:43:38;;;;;;;86.18;8.15;;;;;;;19.96;58.20;102080.34;5094036;28;20552;-79
2022/10/29 03:46:04;;;;;;;39.33;8.80;;;;;;;19.99;58.43;102079.81;5094462;28;20029;-76
2022/10/29 03:48:30;;;;;;;56.63;8.00;;;;;;;19.87;58.82;102084.59;5094036;28;20039;-78
2022/10/29 03:51:00;;;;;;;40.70;8.32;;;;;;;19.99;58.43;102084.44;5079917;28;20553;-77
2022/10/29 03:53:27;;;;;;;26.65;7.90;;;;;;;19.86;58.57;102082.97;5072660;28;20025;-77
2022/10/29 03:55:54;;;;;;;50.40;10.43;;;;;;;19.91;58.61;102091.19;5074530;28;20029;-78
2022/10/29 03:58:20;;;;;;;41.72;7.93;;;;;;;20.04;58.51;102087.25;5073517;28;20048;-77
2022/10/29 04:00:59;;;;;;;37.78;8.32;;;;;;;20.05;58.04;102088.88;5073578;28;20054;-78
2022/10/29 04:03:27;;;;;;;55.88;8.00;;;;;;;19.99;58.39;102089.91;5073603;28;20040;-77
2022/10/29 04:05:52;;;;;;;33.85;7.70;;;;;;;20.01;58.46;102104.13;5091180;28;20147;-79
2022/10/29 04:08:18;;;;;;;53.40;8.57;;;;;;;19.96;58.43;102093.16;5094693;28;20028;-76
2022/10/29 04:10:44;;;;;;;55.75;8.68;;;;;;;20.09;58.39;102098.22;5093974;28;20035;-78
2022/10/29 04:13:10;;;;;;;42.60;8.48;;;;;;;19.99;58.37;102096.19;5089225;28;20472;-78
2022/10/29 04:15:35;;;;;;;66.18;9.10;;;;;;;19.93;58.73;102115.53;5085029;28;20043;-78
2022/10/29 04:18:00;;;;;;;48.40;9.32;;;;;;;19.97;58.77;102108.44;5093639;28;20092;-77
2022/10/29 04:20:26;;;;;;;20.75;9.13;;;;;;;20.06;58.46;102110.47;5093842;28;20047;-77
2022/10/29 04:22:51;;;;;;;41.20;8.85;;;;;;;20.01;58.21;102106.84;5094450;28;20050;-77
2022/10/29 04:25:17;;;;;;;32.90;10.30;;;;;;;20.04;58.29;102104.47;5092491;28;20039;-76
2022/10/29 04:27:42;;;;;;;28.63;10.30;;;;;;;20.12;58.14;102103.16;5091056;28;20036;-77
2022/10/29 04:30:08;;;;;;;23.38;10.23;;;;;;;20.09;58.29;102090.03;5073158;28;20032;-77
2022/10/29 04:32:33;;;;;;;56.28;9.63;;;;;;;20.05;58.47;102092.44;5073152;28;20036;-77
2022/10/29 04:34:58;;;;;;;59.90;9.73;;;;;;;20.15;58.22;102095.28;5073781;28;20044;-75
2022/10/29 04:37:27;;;;;;;18.52;8.57;;;;;;;20.17;58.19;102104.03;5073621;28;20044;-79
2022/10/29 04:39:52;;;;;;;20.65;9.00;;;;;;;20.17;58.26;102105.13;5073297;28;20098;-77
2022/10/29 04:42:18;;;;;;;54.78;9.57;;;;;;;20.15;58.76;102094.44;5073292;28;20508;-76
2022/10/29 04:44:44;;;;;;;53.35;11.77;;;;;;;20.21;58.69;102095.34;5086007;28;20051;-77
2022/10/29 04:47:09;;;;;;;19.45;10.50;;;;;;;20.27;58.70;102106.06;5093377;28;20024;-78
2022/10/29 04:49:34;;;;;;;35.10;10.40;;;;;;;20.27;58.82;102099.78;5092907;28;20044;-76
2022/10/29 04:52:01;;;;;;;28.20;10.63;;;;;;;20.31;58.13;102092.72;5093380;28;20039;-76
2022/10/29 04:54:26;;;;;;;44.55;9.98;;;;;;;20.38;58.06;102107.00;5093054;28;20126;-77
2022/10/29 04:56:52;;;;;;;56.45;10.13;;;;;;;20.39;58.52;102100.44;5092926;28;20028;-77
2022/10/29 04:59:17;;;;;;;32.42;11.23;;;;;;;20.31;58.34;102100.91;5093768;28;20036;-76
2022/10/29 05:01:43;;;;;;;69.60;12.25;;;;;;;20.32;58.91;102099.84;5092881;28;20522;-77
2022/10/29 05:04:08;;;;;;;79.68;11.55;;;;;;;20.32;58.65;102099.84;5093019;28;20027;-76
2022/10/29 05:06:33;;;;;;;51.13;12.40;;;;;;;20.38;58.70;102098.81;5093095;28;20491;-77
2022/10/29 05:08:59;;;;;;;69.38;12.52;;;;;;;20.53;58.33;102099.75;5092904;28;20487;-77
2022/10/29 05:11:24;;;;;;;29.23;11.63;;;;;;;20.45;58.73;102096.66;5091232;28;20060;-78
2022/10/29 05:13:50;;;;;;;72.03;12.70;;;;;;;20.43;58.29;102080.56;5093299;28;20085;-77
2022/10/29 05:16:15;;;;;;;64.22;13.50;;;;;;;20.41;58.81;102087.34;5092823;28;20040;-77
2022/10/29 05:18:41;;;;;;;58.58;12.35;;;;;;;20.49;58.66;102086.88;5092473;28;20039;-78
2022/10/29 05:21:06;;;;;;;74.10;11.52;;;;;;;20.55;58.31;102080.38;5092540;28;20042;-78
2022/10/29 05:23:32;;;;;;;50.40;11.60;;;;;;;20.58;58.15;102075.19;5091275;28;20574;-77
2022/10/29 05:25:57;;;;;;;54.20;11.80;;;;;;;20.58;58.09;102071.66;5073825;28;20025;-77
2022/10/29 05:28:23;;;;;;;54.97;12.23;;;;;;;20.53;58.22;102064.25;5072215;28;20064;-77
2022/10/29 05:30:50;;;;;;;44.70;11.48;;;;;;;20.57;58.18;102065.38;5072425;28;20032;-77
2022/10/29 05:33:23;;;;;;;79.15;12.55;;;;;;;20.49;58.50;102068.59;5072314;28;20649;-77
2022/10/29 05:35:50;;;;;;;115.00;13.95;;;;;;;20.42;58.82;102073.44;5072418;28;20869;-77
2022/10/29 05:38:16;;;;;;;86.57;14.32;;;;;;;20.46;58.64;102082.75;5072947;28;20377;-78
2022/10/29 05:40:43;;;;;;;60.35;14.02;;;;;;;20.57;58.32;102076.31;5072102;28;20384;-77
2022/10/29 05:43:12;;;;;;;62.50;14.70;;;;;;;20.60;58.56;102073.03;5071980;28;20041;-77
2022/10/29 05:45:38;;;;;;;72.03;13.10;;;;;;;20.58;58.49;102060.75;5092328;28;20036;-77
2022/10/29 05:48:04;;;;;;;44.42;13.52;;;;;;;20.59;58.43;102051.44;5092238;28;20039;-78
2022/10/29 05:50:30;;;;;;;40.42;13.63;;;;;;;20.54;58.69;102049.50;5082098;28;20108;-78
2022/10/29 05:52:57;;;;;;;70.32;14.73;;;;;;;20.51;58.83;102049.19;5072738;28;20077;-79
2022/10/29 05:55:24;;;;;;;96.35;13.35;;;;;;;20.35;59.13;102036.50;5072040;28;20036;-77
2022/10/29 05:57:53;;;;;;;101.43;13.82;;;;;;;20.30;59.77;102041.94;5072005;28;20484;-76
2022/10/29 06:00:19;;;;;;;59.58;13.13;;;;;;;20.31;59.65;102054.50;5072093;28;20043;-77
2022/10/29 06:02:44;;;;;;;39.72;14.60;;;;;;;20.56;58.84;102041.06;5071689;28;20491;-78
2022/10/29 06:05:09;;;;;;;65.05;14.05;;;;;;;20.34;59.72;102046.63;5084640;28;20036;-78
2022/10/29 06:07:35;;;;;;;48.92;12.95;;;;;;;20.57;59.38;102042.69;5090484;28;20093;-77
2022/10/29 06:10:00;;;;;;;38.70;15.13;;;;;;;20.55;59.52;102040.22;5092139;28;20040;-78
2022/10/29 06:12:26;;;;;;;48.33;14.60;;;;;;;20.59;59.23;102026.88;5092043;28;20028;-77
2022/10/29 06:14:51;;;;;;;38.70;14.27;;;;;;;20.67;58.86;102020.91;5092089;28;20051;-78
2022/10/29 06:17:16;;;;;;;41.50;15.27;;;;;;;20.54;59.29;102024.13;5092609;28;20031;-76
2022/10/29 06:19:42;;;;;;;27.30;14.23;;;;;;;20.66;59.08;102030.19;5091601;28;20047;-79
2022/10/29 06:22:07;;;;;;;26.80;15.65;;;;;;;20.67;58.84;102029.13;5073685;28;20064;-78
2022/10/29 06:24:32;;;;;;;30.52;17.10;;;;;;;20.71;58.99;102031.06;5070390;28;20043;-77
2022/10/29 06:26:58;;;;;;;26.95;14.90;;;;;;;20.80;58.69;102034.09;5071616;28;20561;-77
2022/10/29 06:29:23;;;;;;;31.02;16.00;;;;;;;20.80;58.97;102040.41;5072270;28;20043;-78
2022/10/29 06:31:48;;;;;;;27.48;16.45;;;;;;;20.74;58.96;102033.25;5071655;28;20040;-77
2022/10/29 06:34:15;;;;;;;30.75;17.70;;;;;;;20.83;59.19;102039.84;5071363;28;20106;-78
2022/10/29 06:36:40;;;;;;;40.90;18.05;;;;;;;20.81;59.36;102050.22;5078430;28;20089;-78
2022/10/29 06:39:06;;;;;;;33.97;17.88;;;;;;;20.86;58.99;102041.25;5089880;28;20493;-78
2022/10/29 06:41:31;;;;;;;31.90;17.50;;;;;;;20.85;59.09;102039.63;5091053;28;20468;-77
2022/10/29 06:43:57;;;;;;;29.63;17.48;;;;;;;20.92;58.70;102042.94;5080742;28;20016;-77
2022/10/29 06:46:22;;;;;;;48.40;19.63;;;;;;;20.87;59.10;102048.38;5081889;28;20029;-77
2022/10/29 06:48:48;;;;;;;32.75;17.60;;;;;;;20.96;58.83;102049.50;5082737;28;20036;-76
2022/10/29 06:51:13;;;;;;;30.73;17.80;;;;;;;21.07;58.71;102053.16;5084832;28;20028;-77
2022/10/29 06:53:38;;;;;;;26.40;16.67;;;;;;;21.12;58.78;102051.28;5083684;28;20040;-77
2022/10/29 06:56:04;;;;;;;37.08;17.13;;;;;;;20.83;59.03;102050.00;5085718;28;20425;-76
2022/10/29 06:58:29;;;;;;;31.90;16.27;;;;;;;21.03;58.46;102038.38;5083403;28;20048;-77
2022/10/29 07:00:54;;;;;;;30.98;16.70;;;;;;;20.85;59.21;102047.81;5084443;28;20036;-77
2022/10/29 07:03:21;;;;;;;25.48;16.98;;;;;;;20.84;59.06;102044.25;5083796;28;20032;-77
2022/10/29 07:05:46;;;;;;;26.17;17.05;;;;;;;21.04;59.03;102035.38;5080145;28;20107;-79
2022/10/29 07:08:12;;;;;;;27.58;17.75;;;;;;;21.08;58.35;102038.41;5081952;28;20043;-79
2022/10/29 07:10:38;;;;;;;25.33;16.10;;;;;;;20.87;58.87;102035.50;5084076;28;20395;-78
2022/10/29 07:13:04;;;;;;;29.75;16.70;;;;;;;21.07;58.75;102044.97;5082513;28;20029;-78
2022/10/29 07:15:29;;;;;;;32.30;17.27;;;;;;;21.14;58.72;102046.38;5083136;28;20047;-71
2022/10/29 07:18:06;;;;;;;33.00;18.42;;;;;;;21.09;58.59;102046.31;5084135;28;20450;-71
2022/10/29 07:20:34;;;;;;;36.58;17.13;;;;;;;20.97;59.08;102041.03;5091773;28;20609;-72
2022/10/29 07:23:01;;;;;;;30.45;16.98;;;;;;;21.26;58.31;102041.50;5094846;28;20028;-72
2022/10/29 07:25:28;;;;;;;31.17;17.92;;;;;;;21.36;58.16;102041.56;5094100;28;20105;-72
2022/10/29 07:27:54;;;;;;;25.25;17.75;;;;;;;21.30;58.14;102039.88;5094028;28;20032;-72
2022/10/29 07:30:20;;;;;;;31.95;18.25;;;;;;;21.46;57.81;102046.22;5088519;28;20043;-71
2022/10/29 07:32:45;;;;;;;34.50;17.25;;;;;;;21.40;58.08;102050.03;5090234;28;20032;-71
2022/10/29 07:35:11;;;;;;;31.63;17.23;;;;;;;21.50;58.02;102042.66;5094335;28;20031;-71
2022/10/29 07:37:37;;;;;;;30.10;17.67;;;;;;;21.23;59.19;102043.97;5093877;28;20550;-72
2022/10/29 07:40:03;;;;;;;28.92;17.90;;;;;;;21.41;58.84;102043.47;5092082;28;20066;-72
2022/10/29 07:42:28;;;;;;;29.63;18.08;;;;;;;21.55;58.44;102041.88;5082484;28;20054;-72
2022/10/29 07:44:53;;;;;;;33.03;18.13;;;;;;;21.49;58.61;102035.56;5080601;28;20036;-70
2022/10/29 07:47:19;;;;;;;34.70;17.33;;;;;;;21.70;58.35;102047.38;5081896;28;20028;-71
2022/10/29 07:49:44;;;;;;;35.30;19.65;;;;;;;21.67;58.67;102053.41;5083267;28;20043;-70
2022/10/29 07:52:10;;;;;;;29.70;19.27;;;;;;;21.73;58.13;102055.06;5082119;28;20029;-72
2022/10/29 07:54:35;;;;;;;27.10;17.15;;;;;;;21.68;58.27;102061.34;5081708;28;20070;-72
2022/10/29 07:57:01;;;;;;;35.75;19.20;;;;;;;21.86;58.26;102054.56;5082239;28;20039;-72
2022/10/29 07:59:26;;;;;;;25.75;17.35;;;;;;;21.93;57.78;102055.16;5082888;28;20124;-70
2022/10/29 08:01:52;;;;;;;32.95;18.27;;;;;;;21.95;57.79;102055.69;5082696;28;20767;-72
2022/10/29 08:04:17;;;;;;;31.13;17.55;;;;;;;21.89;57.92;102061.44;5080108;28;20036;-71
2022/10/29 08:06:43;;;;;;;27.15;17.52;;;;;;;21.76;58.37;102051.78;5080825;28;20039;-72
2022/10/29 08:09:11;;;;;;;28.10;17.95;;;;;;;21.90;58.24;102054.84;5080839;28;20583;-71
2022/10/29 08:11:37;;;;;;;29.75;16.67;;;;;;;22.01;58.09;102049.16;5081731;28;20016;-71
2022/10/29 08:14:03;;;;;;;34.78;19.23;;;;;;;22.14;58.12;102047.78;5081746;28;20347;-72
2022/10/29 08:16:28;;;;;;;29.58;16.60;;;;;;;22.12;58.12;102045.31;5077590;28;20036;-73
2022/10/29 08:18:54;;;;;;;34.47;16.92;;;;;;;22.09;57.63;102045.88;5077065;28;20048;-72
2022/10/29 08:21:19;;;;;;;31.45;17.75;;;;;;;22.17;57.86;102034.34;5077406;28;20033;-72
2022/10/29 08:23:45;;;;;;;35.63;17.85;;;;;;;22.18;58.00;102041.47;5077763;28;20050;-75
2022/10/29 08:26:11;;;;;;;32.17;18.20;;;;;;;22.33;57.78;102018.72;5078943;28;20021;-73
2022/10/29 08:28:36;;;;;;;38.78;18.65;;;;;;;22.06;58.84;102029.13;5080173;28;20070;-73
2022/10/29 08:31:02;;;;;;;29.35;18.90;;;;;;;22.05;58.83;102031.06;5078120;28;20035;-72
2022/10/29 08:33:27;;;;;;;32.53;17.88;;;;;;;22.49;57.76;102028.59;5083468;28;20190;-72
2022/10/29 08:35:53;;;;;;;35.67;17.33;;;;;;;22.38;57.75;102024.22;5080553;28;20036;-72
2022/10/29 08:38:22;;;;;;;30.63;18.60;;;;;;;22.44;58.18;102018.47;5082159;28;20111;-72
2022/10/29 08:40:53;;;;;;;37.53;17.13;;;;;;;22.54;57.46;102014.91;5079511;28;20041;-74
2022/10/29 08:43:46;;;;;;;32.70;18.23;;;;;;;22.58;57.84;102016.81;5080914;28;20101;-74
2022/10/29 08:46:20;;;;;;;28.65;17.65;;;;;;;22.73;57.59;102015.16;5080643;28;20372;-73
2022/10/29 08:48:52;;;;;;;44.33;20.13;;;;;;;22.85;57.92;102021.16;5079998;28;20692;-72
2022/10/29 08:51:35;;;;;;;31.92;18.23;;;;;;;22.99;57.55;102019.47;5080732;28;20600;-72
2022/10/29 08:54:01;;;;;;;26.05;16.58;;;;;;;23.17;57.26;102014.22;5082307;28;20120;-72
2022/10/29 08:56:28;;;;;;;39.47;18.48;;;;;;;23.17;57.41;102021.63;5083238;28;20026;-71
2022/10/29 08:59:06;;;;;;;35.58;17.73;;;;;;;23.35;56.90;102005.38;5083192;28;20476;-73
2022/10/29 09:01:32;;;;;;;30.10;17.30;;;;;;;23.11;58.11;102009.03;5081218;28;20157;-72
2022/10/29 09:03:57;;;;;;;38.83;19.23;;;;;;;22.95;58.57;102011.00;5078819;28;20399;-71
2022/10/29 09:06:43;;;;;;;35.58;19.58;;;;;;;23.47;57.68;102011.34;5082629;28;20040;-73
2022/10/29 09:09:23;;;;;;;42.00;21.00;;;;;;;23.86;56.80;102008.63;5081121;28;20037;-72
2022/10/29 09:12:07;;;;;;;;;;;;;;;23.81;56.93;102002.34;5080832;28;20174;-72
2022/10/29 09:14:56;;;;;;;37.67;19.38;;;;;;;23.75;57.35;101993.34;5083157;28;19908;-71
2022/10/29 09:17:31;;;;;;;32.88;17.42;;;;;;;23.88;57.15;101992.69;5087015;28;20035;-72
2022/10/29 09:19:59;;;;;;;41.53;19.58;;;;;;;23.92;56.45;101990.22;5083281;28;20042;-72
2022/10/29 09:22:55;;;;;;;38.60;18.35;;;;;;;24.00;56.71;101986.84;5083889;28;20143;-73
2022/10/29 09:25:30;;;;;;;34.03;18.75;;;;;;;24.02;56.42;101999.19;5080161;28;20038;-73
2022/10/29 09:28:26;;;;;;;34.53;18.38;;;;;;;24.08;56.58;101989.81;5077248;28;20078;-72
2022/10/29 09:31:02;;;;;;;44.72;19.00;;;;;;;24.36;56.33;101978.03;5079130;28;20066;-73
2022/10/29 09:33:29;;;;;;;34.30;18.05;;;;;;;24.10;56.74;101984.03;5080289;28;20044;-74
2022/10/29 09:35:58;;;;;;;37.78;16.45;;;;;;;24.32;55.88;101976.97;5082564;28;20526;-73
2022/10/29 09:38:33;;;;;;;28.88;16.23;;;;;;;24.51;55.44;101976.25;5081117;28;20037;-72
2022/10/29 09:41:02;;;;;;;33.35;16.77;;;;;;;24.68;55.01;101980.19;5080474;28;20048;-74
2022/10/29 09:43:48;;;;;;;36.83;16.55;;;;;;;24.63;55.07;101985.72;5081831;28;20083;-74
2022/10/29 09:46:24;;;;;;;29.77;16.75;;;;;;;23.97;57.08;101984.66;5080760;28;20039;-73
2022/10/29 09:48:50;;;;;;;31.42;17.25;;;;;;;24.40;56.02;101981.84;5078474;28;20527;-71
2022/10/29 09:51:40;;;;;;;33.63;17.08;;;;;;;24.13;56.85;101983.47;5082972;28;20028;-72
2022/10/29 09:54:06;;;;;;;29.42;15.93;;;;;;;24.54;55.72;101986.66;5080986;28;20032;-72
2022/10/29 09:56:31;;;;;;;35.30;16.75;;;;;;;24.39;55.93;101976.66;5079281;28;20032;-73
2022/10/29 09:59:11;;;;;;;34.90;17.20;;;;;;;24.90;55.35;101969.50;5081462;28;20034;-71
2022/10/29 10:01:36;;;;;;;33.88;15.88;;;;;;;25.26;54.05;101962.44;5079049;28;20045;-72
2022/10/29 10:04:12;;;;;;;38.25;17.55;;;;;;;25.18;54.31;101965.00;5080221;28;20032;-73
2022/10/29 10:07:03;;;;;;;30.08;17.63;;;;;;;25.37;54.07;101959.53;5080984;28;20128;-73
2022/10/29 10:09:50;;;;;;;37.42;16.15;;;;;;;25.31;53.84;101946.97;5080850;28;20114;-74
2022/10/29 10:12:17;;;;;;;29.80;16.20;;;;;;;25.17;54.25;101944.97;5079419;28;20032;-73
2022/10/29 10:14:42;;;;;;;29.00;14.73;;;;;;;25.36;53.83;101941.38;5080127;28;20016;-72
2022/10/29 10:17:08;;;;;;;29.42;16.15;;;;;;;24.60;55.93;101936.84;5081147;28;20039;-72
2022/10/29 10:19:41;;;;;;;27.75;14.23;;;;;;;25.24;54.08;101931.63;5079463;28;20032;-74
2022/10/29 10:22:17;;;;;;;28.77;15.32;;;;;;;25.24;54.22;101933.56;5082696;28;20034;-73
2022/10/29 10:24:43;;;;;;;29.85;15.48;;;;;;;25.14;54.55;101937.28;5080675;28;20029;-73
2022/10/29 10:27:17;;;;;;;30.77;16.45;;;;;;;25.30;54.03;101932.38;5078097;28;20074;-75
2022/10/29 10:29:44;;;;;;;32.00;15.75;;;;;;;25.47;53.62;101924.47;5080001;28;20459;-73
2022/10/29 10:32:15;;;;;;;31.88;15.90;;;;;;;25.50;54.03;101920.28;5083352;28;20492;-73
2022/10/29 10:34:40;;;;;;;27.77;16.10;;;;;;;25.42;53.87;101910.78;5083887;28;20032;-74
2022/10/29 10:37:08;;;;;;;32.28;15.43;;;;;;;25.78;52.84;101913.78;5083027;28;20157;-72
2022/10/29 10:39:43;;;;;;;27.65;14.55;;;;;;;25.89;52.58;101906.97;5086688;28;20511;-73
2022/10/29 10:42:36;;;;;;;34.05;15.55;;;;;;;25.97;52.31;101892.50;5082080;28;20045;-73
2022/10/29 10:45:13;;;;;;;27.08;13.95;;;;;;;26.12;52.10;101881.28;5079903;28;20041;-73
2022/10/29 10:47:42;;;;;;;35.13;14.60;;;;;;;25.62;52.74;101876.59;5082163;28;20047;-73
2022/10/29 10:50:25;;;;;;;31.38;16.80;;;;;;;25.81;52.76;101883.69;5081762;28;20059;-73
2022/10/29 10:52:53;;;;;;;33.80;16.00;;;;;;;26.07;51.70;101904.22;5082706;28;20044;-72
2022/10/29 10:55:26;;;;;;;30.55;14.52;;;;;;;26.17;51.93;101899.63;5081161;28;20648;-74
2022/10/29 10:58:13;;;;;;;32.15;15.30;;;;;;;26.33;51.28;101900.97;5084280;28;20052;-74
2022/10/29 11:01:08;;;;;;;45.55;15.65;;;;;;;26.02;52.35;101907.00;5084287;28;20074;-72
2022/10/29 11:03:44;;;;;;;25.42;13.80;;;;;;;25.87;52.68;101911.97;5082659;28;20040;-72
2022/10/29 11:06:23;;;;;;;27.13;14.95;;;;;;;26.07;52.10;101908.91;5078475;28;20028;-71
2022/10/29 11:09:21;;;;;;;24.27;14.10;;;;;;;26.30;51.90;101909.88;5080958;28;20041;-72
2022/10/29 11:12:02;;;;;;;25.95;15.63;;;;;;;26.39;51.69;101908.84;5030393;28;20129;-72
2022/10/29 11:14:35;;;;;;;30.70;14.98;;;;;;;26.37;51.35;101896.50;5030603;28;20037;-72
2022/10/29 11:17:08;;;;;;;39.67;16.65;;;;;;;26.17;52.77;101894.13;5031232;28;20426;-72
2022/10/29 11:19:50;;;;;;;31.08;15.38;;;;;;;26.71;51.27;101883.94;5028971;28;20041;-73
2022/10/29 11:22:28;;;;;;;26.92;14.75;;;;;;;26.47;51.79;101877.00;5027922;28;20053;-72
2022/10/29 11:25:22;;;;;;;27.63;13.68;;;;;;;26.18;51.83;101874.50;5027225;28;20049;-72